createdAt,value
2022-12-01T09:02:16.175Z,27.95
2022-12-01T09:04:44.462Z,21.50
2022-12-01T09:07:12.197Z,28.85
2022-12-01T09:09:43.797Z,28.75
2022-12-01T09:12:11.823Z,28.48
2022-12-01T09:14:40.987Z,18.35
2022-12-01T09:17:09.144Z,21.15
2022-12-01T09:22:03.353Z,23.80
2022-12-01T09:24:30.430Z,18.52
2022-12-01T09:31:57.166Z,12.50
2022-12-01T09:34:24.555Z,21.08
2022-12-01T09:36:54.383Z,15.65
2022-12-01T10:30:04.621Z,9.00
2022-12-01T10:32:54.571Z,12.30
2022-12-01T12:00:15.229Z,12.10
2022-12-01T13:05:47.594Z,10.63
2022-12-01T13:31:12.576Z,8.52
2022-12-01T13:36:45.193Z,9.52
2022-12-01T13:39:19.790Z,9.73
2022-12-01T13:41:56.243Z,21.92
2022-12-01T13:44:54.563Z,15.27
2022-12-01T13:47:24.656Z,11.13
2022-12-01T13:49:53.040Z,9.32
2022-12-01T13:52:22.926Z,9.07
2022-12-01T13:55:08.670Z,10.70
2022-12-01T13:57:43.805Z,8.32
2022-12-01T14:00:32.537Z,6.88
2022-12-01T14:03:19.456Z,9.85
2022-12-01T14:05:57.166Z,8.30
2022-12-01T14:08:28.481Z,7.25
2022-12-01T14:11:07.109Z,8.73
2022-12-01T14:14:07.590Z,11.02
2022-12-01T14:16:49.637Z,8.93
2022-12-01T14:19:41.370Z,10.88
2022-12-01T14:22:39.266Z,7.15
2022-12-01T14:25:21.337Z,10.00
2022-12-01T14:28:09.819Z,10.00
2022-12-01T14:30:39.799Z,8.63
2022-12-01T14:33:47.538Z,7.93
2022-12-01T14:36:23.494Z,12.88
2022-12-01T14:38:59.568Z,9.35
2022-12-01T14:41:43.198Z,10.13
2022-12-01T14:44:25.395Z,12.27
2022-12-01T14:47:00.094Z,9.38
2022-12-01T14:49:35.175Z,7.93
2022-12-01T14:52:07.323Z,8.15
2022-12-01T14:54:43.587Z,10.18
2022-12-01T14:57:16.860Z,9.02
2022-12-01T14:59:44.986Z,12.45
2022-12-01T15:02:13.788Z,14.05
2022-12-01T15:05:13.923Z,12.30
2022-12-01T15:07:48.773Z,14.90
2022-12-01T15:12:44.429Z,21.23
2022-12-01T15:15:24.295Z,31.65
2022-12-01T15:17:53.360Z,29.27
2022-12-01T15:20:29.562Z,33.25
2022-12-01T15:22:57.535Z,28.05
2022-12-01T15:25:28.859Z,41.53
2022-12-01T15:28:04.662Z,34.65
2022-12-01T15:30:32.963Z,45.97
2022-12-01T15:33:00.820Z,31.75
2022-12-01T15:35:28.319Z,28.75
2022-12-01T15:37:58.477Z,25.02
2022-12-01T15:41:20.695Z,25.38
2022-12-01T15:43:38.174Z,21.70
2022-12-01T15:46:16.765Z,29.30
2022-12-01T15:48:45.489Z,27.38
2022-12-01T15:51:24.407Z,18.40
2022-12-01T15:54:01.079Z,20.20
2022-12-01T15:56:39.815Z,21.60
2022-12-01T15:59:12.912Z,20.98
2022-12-01T16:01:42.455Z,31.02
2022-12-01T16:04:27.243Z,23.55
2022-12-01T16:06:59.240Z,21.17
2022-12-01T16:09:37.253Z,23.77
2022-12-01T16:12:16.484Z,21.30
2022-12-01T16:15:07.503Z,22.30
2022-12-01T16:17:47.612Z,20.25
2022-12-01T16:20:23.733Z,23.42
2022-12-01T16:23:01.054Z,21.52
2022-12-01T16:25:38.085Z,19.10
2022-12-01T16:28:06.915Z,16.38
2022-12-01T16:30:39.023Z,19.33
2022-12-01T16:33:18.608Z,18.52
2022-12-01T16:35:46.162Z,18.38
2022-12-01T16:38:25.415Z,26.88
2022-12-01T16:40:56.176Z,31.15
2022-12-01T16:43:25.357Z,29.17
2022-12-01T16:46:04.082Z,28.40
2022-12-01T16:48:32.044Z,19.92
2022-12-01T16:51:03.396Z,18.23
2022-12-01T16:53:30.375Z,21.10
2022-12-01T16:55:59.545Z,25.20
2022-12-01T16:58:26.726Z,35.20
2022-12-01T17:00:54.180Z,22.92
2022-12-01T17:03:25.906Z,24.00
2022-12-01T17:05:54.053Z,30.25
2022-12-01T17:08:21.733Z,31.58
2022-12-01T17:10:52.044Z,22.95
2022-12-01T17:13:24.394Z,28.40
2022-12-01T17:15:55.533Z,31.75
2022-12-01T17:18:24.042Z,32.03
2022-12-01T17:21:02.522Z,34.95
2022-12-01T17:23:30.024Z,25.77
2022-12-01T17:25:56.958Z,25.73
2022-12-01T17:28:23.899Z,31.33
2022-12-01T17:30:51.023Z,36.85
2022-12-01T17:33:18.095Z,25.52
2022-12-01T17:35:45.108Z,30.10
2022-12-01T17:38:12.055Z,32.80
2022-12-01T17:40:39.187Z,36.53
2022-12-01T17:43:08.219Z,41.38
2022-12-01T17:45:41.948Z,34.22
2022-12-01T17:48:11.538Z,33.23
2022-12-01T17:50:38.530Z,35.40
2022-12-01T17:53:05.451Z,32.35
2022-12-01T17:55:32.394Z,32.95
2022-12-01T17:57:59.413Z,27.50
2022-12-01T18:00:26.461Z,38.25
2022-12-01T18:02:53.474Z,27.35
2022-12-01T18:05:20.683Z,26.42
2022-12-01T18:07:47.835Z,28.90
2022-12-01T18:10:14.895Z,26.48
2022-12-01T18:12:41.866Z,33.47
2022-12-01T18:15:09.493Z,28.05
2022-12-01T18:17:36.569Z,25.95
2022-12-01T18:20:03.832Z,28.02
2022-12-01T18:22:31.475Z,31.48
2022-12-01T18:24:58.755Z,23.80
2022-12-01T18:27:25.680Z,30.95
2022-12-01T18:29:52.638Z,30.10
2022-12-01T18:32:19.560Z,29.02
2022-12-01T18:34:47.080Z,25.33
2022-12-01T18:37:15.303Z,32.28
2022-12-01T18:39:42.277Z,24.58
2022-12-01T18:42:09.222Z,27.95
2022-12-01T18:44:36.256Z,36.28
2022-12-01T18:47:03.967Z,26.08
2022-12-01T18:49:30.995Z,30.55
2022-12-01T18:51:59.791Z,26.38
2022-12-01T18:54:26.952Z,30.67
2022-12-01T18:56:55.112Z,30.50
2022-12-01T18:59:22.038Z,34.00
2022-12-01T19:01:49.801Z,30.70
2022-12-01T19:04:17.022Z,30.30
2022-12-01T19:06:45.605Z,32.45
2022-12-01T19:09:14.388Z,26.98
2022-12-01T19:11:41.959Z,35.88
2022-12-01T19:14:17.608Z,26.60
2022-12-01T19:16:45.804Z,27.58
2022-12-01T19:19:12.919Z,32.15
2022-12-01T19:21:39.925Z,48.55
2022-12-01T19:24:07.280Z,56.42
2022-12-01T19:26:34.279Z,41.60
2022-12-01T19:29:02.592Z,41.78
2022-12-01T19:31:29.679Z,32.45
2022-12-01T19:33:56.678Z,29.60
2022-12-01T19:36:27.440Z,31.90
2022-12-01T19:38:57.604Z,25.55
2022-12-01T19:41:25.653Z,31.98
2022-12-01T19:43:53.744Z,37.25
2022-12-01T19:46:23.514Z,35.83
2022-12-01T19:48:55.916Z,30.73
2022-12-01T19:51:29.413Z,24.52
2022-12-01T19:53:56.898Z,27.02
2022-12-01T19:56:24.634Z,22.98
2022-12-01T19:58:51.863Z,26.25
2022-12-01T20:01:20.134Z,23.83
2022-12-01T20:03:49.361Z,29.15
2022-12-01T20:06:25.627Z,25.02
2022-12-01T20:08:54.561Z,24.75
2022-12-01T20:11:22.328Z,26.85
2022-12-01T20:13:49.873Z,24.05
2022-12-01T20:16:20.234Z,25.38
2022-12-01T20:18:48.236Z,28.45
2022-12-01T20:21:17.476Z,32.85
2022-12-01T20:23:59.527Z,28.88
2022-12-01T20:26:30.798Z,27.23
2022-12-01T20:29:07.207Z,21.10
2022-12-01T20:31:34.747Z,29.80
2022-12-01T20:34:05.047Z,22.63
2022-12-01T20:36:32.192Z,25.98
2022-12-01T20:38:59.391Z,36.45
2022-12-01T20:41:26.434Z,31.27
2022-12-01T20:43:53.372Z,27.95
2022-12-01T20:46:20.382Z,29.05
2022-12-01T20:48:47.503Z,30.33
2022-12-01T20:51:15.542Z,34.10
2022-12-01T20:53:59.516Z,35.03
2022-12-01T20:56:29.786Z,25.08
2022-12-01T20:58:57.088Z,29.67
2022-12-01T21:01:24.268Z,32.33
2022-12-01T21:03:52.878Z,35.00
2022-12-01T21:06:20.713Z,26.42
2022-12-01T21:08:49.630Z,27.83
2022-12-01T21:11:55.332Z,28.77
2022-12-01T21:14:38.080Z,30.08
2022-12-01T21:17:28.520Z,33.03
2022-12-01T21:20:05.622Z,22.52
2022-12-01T21:22:33.146Z,28.90
2022-12-01T21:25:09.923Z,24.08
2022-12-01T21:27:36.935Z,28.42
2022-12-01T21:30:14.884Z,32.28
2022-12-01T21:32:44.246Z,31.02
2022-12-01T21:35:29.323Z,30.40
2022-12-01T21:38:04.304Z,33.53
2022-12-01T21:40:31.285Z,32.20
2022-12-01T21:43:12.325Z,42.28
2022-12-01T21:45:39.346Z,45.85
2022-12-01T21:48:12.695Z,36.28
2022-12-01T21:50:39.689Z,29.42
2022-12-01T21:53:18.234Z,35.63
2022-12-01T21:55:47.013Z,37.97
2022-12-01T21:58:29.654Z,29.08
2022-12-01T22:00:58.671Z,33.15
2022-12-01T22:03:39.893Z,36.67
2022-12-01T22:09:01.288Z,27.55
2022-12-01T22:11:30.378Z,26.08
2022-12-01T22:14:19.950Z,27.08
2022-12-01T22:17:07.704Z,20.48
2022-12-01T22:19:39.658Z,20.60
2022-12-01T22:22:09.399Z,29.92
2022-12-01T22:24:42.212Z,30.27
2022-12-01T22:27:28.843Z,26.00
2022-12-01T22:30:07.875Z,25.33
2022-12-01T22:32:36.296Z,29.05
2022-12-01T22:35:29.404Z,23.45
2022-12-01T22:38:09.042Z,25.23
2022-12-01T22:40:38.997Z,24.50
2022-12-01T22:43:18.003Z,54.38
2022-12-01T22:45:49.159Z,28.92
2022-12-01T22:48:28.285Z,22.40
2022-12-01T22:50:57.056Z,24.85
2022-12-01T22:53:30.033Z,25.05
2022-12-01T22:56:00.272Z,26.25
2022-12-01T22:58:38.809Z,19.58
2022-12-01T23:01:32.253Z,31.50
2022-12-01T23:04:32.582Z,20.73
2022-12-01T23:07:27.781Z,26.60
2022-12-01T23:09:58.186Z,17.77
2022-12-01T23:12:28.699Z,19.58
2022-12-01T23:14:59.015Z,20.60
2022-12-01T23:17:31.364Z,19.83
2022-12-01T23:20:10.210Z,17.35
2022-12-01T23:22:38.323Z,17.48
2022-12-01T23:25:17.554Z,12.88
2022-12-01T23:27:47.197Z,13.90
2022-12-01T23:30:16.339Z,12.13
2022-12-01T23:32:43.910Z,8.98
2022-12-01T23:35:16.585Z,12.88
2022-12-01T23:37:46.309Z,7.80
2022-12-01T23:40:20.305Z,7.63
2022-12-01T23:42:47.626Z,7.15
2022-12-01T23:45:25.194Z,7.90
2022-12-01T23:47:54.419Z,10.55
2022-12-01T23:50:26.708Z,9.48
2022-12-01T23:52:54.392Z,10.10
2022-12-01T23:55:27.318Z,10.23
2022-12-01T23:57:55.197Z,10.30
